Nuuk, Greenland

5:00 PM WGST on September 03, 2015 (GMT -0200)
Nuuk | | Change Station
CLOSE
Current Station
Airport
Location: Nuuk,
Elevation: 282 ft
Nearby Weather Stations

Elev 282 ft 64.19 °N, 51.68 °W | Updated 10 minutes ago

Light Rain
Light Rain
46 °F
Feels Like 42 °F
N
10
Wind Variable Wind from NE

Today
High -- | Low -- °F
--% Chance of Precip.
Yesterday
High -- | Low -- °F
Precip. -- in
6:14 AM 8:36 PM
Waning Gibbous, 68% visible
Pressure 29.80 in
Visibility 6.2 miles
Clouds Mostly Cloudy 5500 ft
Windchill 42 °F
Dew Point 43 °F
Humidity 87%
Rainfall 0.00 in
Snow Depth Not available.
UV 1 out of 12
Pollen Not available.
Air Quality Not available.
Flu Activity Not available.
METAR BGGH 031850Z 05009KT 9999 -RA BKN055 08/06 Q1009
Pressure 29.80 in
Visibility 6.2 miles
Clouds Mostly Cloudy 5500 ft
Windchill 42 °F
Dew Point 43 °F
Humidity 87%
Rainfall 0.00 in
Snow Depth Not available.
UV 1 out of 12
Pollen Not available.
Air Quality Not available.
Flu Activity Not available.
METAR BGGH 031850Z 05009KT 9999 -RA BKN055 08/06 Q1009

10-Day Weather Forecast

×

Almanac

Astronomy

Sep. 03, 2015 Rise Set
Actual Time
Civil Twilight
Nautical Twilight
Astronomical Twilight
Moon
Length of Visible Light
Length of Day
Tomorrow will be .
, % of the Moon is Illuminated

Today's Extremes

Country Highs Country Lows

Community

WunderPhotos

Upload Photos

1,852,012 photos uploaded!

WunderBlogs® & News

Nearby

Air Quality

  Air Quality AQ Index Pollutant
Not available.

Snow Depth

Station Depth Elevation

Earthquake Activity

City Distance Mag. Time & Date
Minimum magnitude displayed is 2.5.

Coastal Water Temperatures

Place Temperature

Stations

Nearby Weather Stations

Station Location Temp. Windchill Dew Point Humidity Wind Precip. Elev Updated Type